sensor_id;sensor_type;location;lat;lon;timestamp;P1;durP1;ratioP1;P2;durP2;ratioP2
11247;SDS011;5681;53.316;13.950;2024-02-04T00:00:23;20.47;;;3.37;;
11247;SDS011;5681;53.316;13.950;2024-02-04T00:02:50;15.77;;;3.00;;
11247;SDS011;5681;53.316;13.950;2024-02-04T00:05:17;15.47;;;3.03;;
11247;SDS011;5681;53.316;13.950;2024-02-04T00:07:43;18.03;;;3.47;;
11247;SDS011;5681;53.316;13.950;2024-02-04T00:10:10;14.83;;;2.83;;
11247;SDS011;5681;53.316;13.950;2024-02-04T00:12:37;15.23;;;3.20;;
11247;SDS011;5681;53.316;13.950;2024-02-04T00:15:04;17.63;;;3.33;;
11247;SDS011;5681;53.316;13.950;2024-02-04T00:17:31;11.63;;;2.57;;
11247;SDS011;5681;53.316;13.950;2024-02-04T00:20:00;10.80;;;2.80;;
11247;SDS011;5681;53.316;13.950;2024-02-04T00:22:27;21.47;;;3.07;;
11247;SDS011;5681;53.316;13.950;2024-02-04T00:24:56;23.60;;;3.47;;
11247;SDS011;5681;53.316;13.950;2024-02-04T00:27:26;15.47;;;3.13;;
11247;SDS011;5681;53.316;13.950;2024-02-04T00:29:53;18.87;;;3.47;;
11247;SDS011;5681;53.316;13.950;2024-02-04T00:32:20;17.83;;;3.47;;
11247;SDS011;5681;53.316;13.950;2024-02-04T00:34:46;17.87;;;3.20;;
11247;SDS011;5681;53.316;13.950;2024-02-04T00:37:14;12.40;;;2.80;;
11247;SDS011;5681;53.316;13.950;2024-02-04T00:39:40;12.23;;;2.90;;
11247;SDS011;5681;53.316;13.950;2024-02-04T00:42:08;18.50;;;3.03;;
11247;SDS011;5681;53.316;13.950;2024-02-04T00:44:37;15.73;;;3.40;;
11247;SDS011;5681;53.316;13.950;2024-02-04T00:47:04;19.77;;;3.57;;
11247;SDS011;5681;53.316;13.950;2024-02-04T00:49:30;18.57;;;2.93;;
11247;SDS011;5681;53.316;13.950;2024-02-04T00:51:57;15.10;;;3.67;;
11247;SDS011;5681;53.316;13.950;2024-02-04T00:54:24;18.07;;;3.60;;
11247;SDS011;5681;53.316;13.950;2024-02-04T00:56:51;21.17;;;3.47;;
11247;SDS011;5681;53.316;13.950;2024-02-04T00:59:17;25.17;;;3.70;;
11247;SDS011;5681;53.316;13.950;2024-02-04T01:01:43;23.63;;;3.50;;
11247;SDS011;5681;53.316;13.950;2024-02-04T01:04:10;18.50;;;3.50;;
11247;SDS011;5681;53.316;13.950;2024-02-04T01:06:37;16.37;;;2.83;;
11247;SDS011;5681;53.316;13.950;2024-02-04T01:09:03;20.67;;;3.53;;
11247;SDS011;5681;53.316;13.950;2024-02-04T01:11:31;17.93;;;3.20;;
11247;SDS011;5681;53.316;13.950;2024-02-04T01:13:57;23.67;;;2.83;;
11247;SDS011;5681;53.316;13.950;2024-02-04T01:16:24;16.57;;;3.30;;
11247;SDS011;5681;53.316;13.950;2024-02-04T01:18:51;17.47;;;3.10;;
11247;SDS011;5681;53.316;13.950;2024-02-04T01:21:17;21.57;;;3.47;;
11247;SDS011;5681;53.316;13.950;2024-02-04T01:23:44;15.13;;;3.30;;
11247;SDS011;5681;53.316;13.950;2024-02-04T01:26:10;17.27;;;3.10;;
11247;SDS011;5681;53.316;13.950;2024-02-04T01:28:38;18.73;;;3.67;;
11247;SDS011;5681;53.316;13.950;2024-02-04T01:31:04;15.17;;;3.13;;
11247;SDS011;5681;53.316;13.950;2024-02-04T01:33:31;18.27;;;4.00;;
11247;SDS011;5681;53.316;13.950;2024-02-04T01:35:57;20.30;;;4.30;;
11247;SDS011;5681;53.316;13.950;2024-02-04T01:38:23;16.10;;;3.13;;
11247;SDS011;5681;53.316;13.950;2024-02-04T01:40:50;20.83;;;4.03;;
11247;SDS011;5681;53.316;13.950;2024-02-04T01:43:18;18.60;;;3.93;;
11247;SDS011;5681;53.316;13.950;2024-02-04T01:45:47;18.00;;;4.90;;
11247;SDS011;5681;53.316;13.950;2024-02-04T01:48:15;19.20;;;3.63;;
11247;SDS011;5681;53.316;13.950;2024-02-04T01:50:42;18.67;;;3.27;;
11247;SDS011;5681;53.316;13.950;2024-02-04T01:53:09;17.70;;;3.67;;
11247;SDS011;5681;53.316;13.950;2024-02-04T01:55:36;16.67;;;3.30;;
11247;SDS011;5681;53.316;13.950;2024-02-04T01:58:03;22.33;;;3.50;;
11247;SDS011;5681;53.316;13.950;2024-02-04T02:00:30;18.97;;;3.90;;
11247;SDS011;5681;53.316;13.950;2024-02-04T02:02:58;21.83;;;3.80;;
11247;SDS011;5681;53.316;13.950;2024-02-04T02:05:25;18.00;;;3.73;;
11247;SDS011;5681;53.316;13.950;2024-02-04T02:07:51;21.90;;;3.70;;
11247;SDS011;5681;53.316;13.950;2024-02-04T02:10:18;17.03;;;3.17;;
11247;SDS011;5681;53.316;13.950;2024-02-04T02:12:47;20.93;;;3.70;;
11247;SDS011;5681;53.316;13.950;2024-02-04T02:15:15;17.97;;;3.60;;
11247;SDS011;5681;53.316;13.950;2024-02-04T02:17:45;17.60;;;3.27;;
11247;SDS011;5681;53.316;13.950;2024-02-04T02:20:19;19.30;;;3.57;;
11247;SDS011;5681;53.316;13.950;2024-02-04T02:22:48;22.90;;;4.03;;
11247;SDS011;5681;53.316;13.950;2024-02-04T02:25:17;15.00;;;3.30;;
11247;SDS011;5681;53.316;13.950;2024-02-04T02:27:46;15.47;;;3.00;;
11247;SDS011;5681;53.316;13.950;2024-02-04T02:30:13;16.27;;;3.47;;
11247;SDS011;5681;53.316;13.950;2024-02-04T02:32:40;18.43;;;3.23;;
11247;SDS011;5681;53.316;13.950;2024-02-04T02:35:06;19.57;;;4.00;;
11247;SDS011;5681;53.316;13.950;2024-02-04T02:37:35;23.97;;;3.70;;
11247;SDS011;5681;53.316;13.950;2024-02-04T02:40:05;13.20;;;3.87;;
11247;SDS011;5681;53.316;13.950;2024-02-04T02:42:37;16.47;;;3.80;;
11247;SDS011;5681;53.316;13.950;2024-02-04T02:45:04;15.97;;;3.27;;
11247;SDS011;5681;53.316;13.950;2024-02-04T02:47:32;21.20;;;4.33;;
11247;SDS011;5681;53.316;13.950;2024-02-04T02:50:00;20.67;;;3.87;;
11247;SDS011;5681;53.316;13.950;2024-02-04T02:52:26;22.33;;;4.20;;
11247;SDS011;5681;53.316;13.950;2024-02-04T02:54:52;25.47;;;3.77;;
11247;SDS011;5681;53.316;13.950;2024-02-04T02:57:19;25.27;;;3.97;;
11247;SDS011;5681;53.316;13.950;2024-02-04T02:59:46;19.53;;;3.87;;
11247;SDS011;5681;53.316;13.950;2024-02-04T03:02:13;22.70;;;4.43;;
11247;SDS011;5681;53.316;13.950;2024-02-04T03:04:40;22.77;;;4.10;;
11247;SDS011;5681;53.316;13.950;2024-02-04T03:07:06;16.53;;;3.40;;
11247;SDS011;5681;53.316;13.950;2024-02-04T03:09:32;22.73;;;4.30;;
11247;SDS011;5681;53.316;13.950;2024-02-04T03:11:59;15.73;;;3.67;;
11247;SDS011;5681;53.316;13.950;2024-02-04T03:14:25;19.67;;;3.87;;
11247;SDS011;5681;53.316;13.950;2024-02-04T03:16:53;23.17;;;4.37;;
11247;SDS011;5681;53.316;13.950;2024-02-04T03:19:19;15.87;;;3.60;;
11247;SDS011;5681;53.316;13.950;2024-02-04T03:21:46;20.27;;;3.90;;
11247;SDS011;5681;53.316;13.950;2024-02-04T03:24:13;18.37;;;3.60;;
11247;SDS011;5681;53.316;13.950;2024-02-04T03:26:39;21.93;;;3.90;;
11247;SDS011;5681;53.316;13.950;2024-02-04T03:29:05;16.23;;;3.63;;
11247;SDS011;5681;53.316;13.950;2024-02-04T03:31:32;21.10;;;3.50;;
11247;SDS011;5681;53.316;13.950;2024-02-04T03:34:00;17.10;;;3.50;;
11247;SDS011;5681;53.316;13.950;2024-02-04T03:36:27;19.03;;;3.43;;
11247;SDS011;5681;53.316;13.950;2024-02-04T03:38:53;17.93;;;3.30;;
11247;SDS011;5681;53.316;13.950;2024-02-04T03:41:19;17.60;;;3.33;;
11247;SDS011;5681;53.316;13.950;2024-02-04T03:43:46;17.17;;;3.50;;
11247;SDS011;5681;53.316;13.950;2024-02-04T03:46:13;17.77;;;3.60;;
11247;SDS011;5681;53.316;13.950;2024-02-04T03:48:40;16.07;;;2.93;;
11247;SDS011;5681;53.316;13.950;2024-02-04T03:51:08;13.63;;;3.07;;
11247;SDS011;5681;53.316;13.950;2024-02-04T03:53:34;11.97;;;3.17;;
11247;SDS011;5681;53.316;13.950;2024-02-04T03:56:00;22.97;;;3.10;;
11247;SDS011;5681;53.316;13.950;2024-02-04T03:58:27;20.33;;;3.67;;
11247;SDS011;5681;53.316;13.950;2024-02-04T04:00:55;15.43;;;3.10;;
11247;SDS011;5681;53.316;13.950;2024-02-04T04:03:21;18.00;;;3.47;;
11247;SDS011;5681;53.316;13.950;2024-02-04T04:05:48;16.30;;;3.37;;
11247;SDS011;5681;53.316;13.950;2024-02-04T04:08:16;15.77;;;3.27;;
11247;SDS011;5681;53.316;13.950;2024-02-04T04:10:43;17.53;;;3.53;;
11247;SDS011;5681;53.316;13.950;2024-02-04T04:13:09;12.90;;;3.00;;
11247;SDS011;5681;53.316;13.950;2024-02-04T04:15:36;16.97;;;3.10;;
11247;SDS011;5681;53.316;13.950;2024-02-04T04:18:03;17.60;;;3.20;;
11247;SDS011;5681;53.316;13.950;2024-02-04T04:20:29;18.17;;;3.30;;
11247;SDS011;5681;53.316;13.950;2024-02-04T04:22:56;23.73;;;3.63;;
11247;SDS011;5681;53.316;13.950;2024-02-04T04:25:23;17.00;;;3.47;;
11247;SDS011;5681;53.316;13.950;2024-02-04T04:27:50;13.87;;;2.97;;
11247;SDS011;5681;53.316;13.950;2024-02-04T04:30:16;17.93;;;3.37;;
11247;SDS011;5681;53.316;13.950;2024-02-04T04:32:42;17.33;;;3.80;;
11247;SDS011;5681;53.316;13.950;2024-02-04T04:35:09;19.27;;;3.40;;
11247;SDS011;5681;53.316;13.950;2024-02-04T04:37:35;12.63;;;3.20;;
11247;SDS011;5681;53.316;13.950;2024-02-04T04:40:02;20.57;;;3.63;;
11247;SDS011;5681;53.316;13.950;2024-02-04T04:42:32;17.37;;;3.53;;
11247;SDS011;5681;53.316;13.950;2024-02-04T04:44:58;21.07;;;7.53;;
11247;SDS011;5681;53.316;13.950;2024-02-04T04:47:25;34.87;;;15.27;;
11247;SDS011;5681;53.316;13.950;2024-02-04T04:49:51;60.30;;;32.93;;
11247;SDS011;5681;53.316;13.950;2024-02-04T04:52:17;38.97;;;16.50;;
11247;SDS011;5681;53.316;13.950;2024-02-04T04:54:44;47.30;;;24.40;;
11247;SDS011;5681;53.316;13.950;2024-02-04T04:57:10;68.50;;;34.50;;
11247;SDS011;5681;53.316;13.950;2024-02-04T04:59:38;21.93;;;9.33;;
11247;SDS011;5681;53.316;13.950;2024-02-04T05:02:05;19.60;;;5.50;;
11247;SDS011;5681;53.316;13.950;2024-02-04T05:04:32;21.77;;;7.23;;
11247;SDS011;5681;53.316;13.950;2024-02-04T05:06:58;15.80;;;4.50;;
11247;SDS011;5681;53.316;13.950;2024-02-04T05:09:24;15.97;;;3.83;;
11247;SDS011;5681;53.316;13.950;2024-02-04T05:11:51;21.13;;;4.97;;
11247;SDS011;5681;53.316;13.950;2024-02-04T05:14:17;21.13;;;11.07;;
11247;SDS011;5681;53.316;13.950;2024-02-04T05:16:45;18.50;;;6.60;;
11247;SDS011;5681;53.316;13.950;2024-02-04T05:19:11;19.03;;;6.13;;
11247;SDS011;5681;53.316;13.950;2024-02-04T05:21:38;20.77;;;5.13;;
11247;SDS011;5681;53.316;13.950;2024-02-04T05:24:05;15.03;;;3.67;;
11247;SDS011;5681;53.316;13.950;2024-02-04T05:26:31;17.03;;;4.93;;
11247;SDS011;5681;53.316;13.950;2024-02-04T05:28:58;21.70;;;5.93;;
11247;SDS011;5681;53.316;13.950;2024-02-04T05:31:24;11.67;;;4.77;;
11247;SDS011;5681;53.316;13.950;2024-02-04T05:33:52;22.23;;;6.90;;
11247;SDS011;5681;53.316;13.950;2024-02-04T05:36:18;12.03;;;4.93;;
11247;SDS011;5681;53.316;13.950;2024-02-04T05:38:45;17.70;;;8.73;;
11247;SDS011;5681;53.316;13.950;2024-02-04T05:41:11;20.70;;;5.47;;
11247;SDS011;5681;53.316;13.950;2024-02-04T05:43:38;16.60;;;3.70;;
11247;SDS011;5681;53.316;13.950;2024-02-04T05:46:05;12.37;;;3.60;;
11247;SDS011;5681;53.316;13.950;2024-02-04T05:48:31;16.60;;;4.23;;
11247;SDS011;5681;53.316;13.950;2024-02-04T05:50:59;14.67;;;3.83;;
11247;SDS011;5681;53.316;13.950;2024-02-04T05:53:25;16.30;;;4.03;;
11247;SDS011;5681;53.316;13.950;2024-02-04T05:55:51;17.67;;;3.63;;
11247;SDS011;5681;53.316;13.950;2024-02-04T05:58:18;13.60;;;2.67;;
11247;SDS011;5681;53.316;13.950;2024-02-04T06:00:44;16.40;;;5.73;;
11247;SDS011;5681;53.316;13.950;2024-02-04T06:03:10;11.13;;;3.43;;
11247;SDS011;5681;53.316;13.950;2024-02-04T06:05:37;15.30;;;3.00;;
11247;SDS011;5681;53.316;13.950;2024-02-04T06:08:05;18.10;;;3.40;;
11247;SDS011;5681;53.316;13.950;2024-02-04T06:10:32;12.13;;;3.20;;
11247;SDS011;5681;53.316;13.950;2024-02-04T06:12:58;21.00;;;3.27;;
11247;SDS011;5681;53.316;13.950;2024-02-04T06:15:25;11.57;;;3.37;;
11247;SDS011;5681;53.316;13.950;2024-02-04T06:17:51;18.37;;;3.67;;
11247;SDS011;5681;53.316;13.950;2024-02-04T06:20:17;12.63;;;3.13;;
11247;SDS011;5681;53.316;13.950;2024-02-04T06:22:44;16.90;;;3.53;;
11247;SDS011;5681;53.316;13.950;2024-02-04T06:25:12;15.77;;;3.37;;
11247;SDS011;5681;53.316;13.950;2024-02-04T06:27:38;19.40;;;3.27;;
11247;SDS011;5681;53.316;13.950;2024-02-04T06:30:06;13.77;;;3.47;;
11247;SDS011;5681;53.316;13.950;2024-02-04T06:32:33;12.23;;;4.20;;
11247;SDS011;5681;53.316;13.950;2024-02-04T06:34:59;13.60;;;3.50;;
11247;SDS011;5681;53.316;13.950;2024-02-04T06:37:26;12.63;;;3.80;;
11247;SDS011;5681;53.316;13.950;2024-02-04T06:39:52;17.93;;;3.67;;
11247;SDS011;5681;53.316;13.950;2024-02-04T06:42:20;13.10;;;4.80;;
11247;SDS011;5681;53.316;13.950;2024-02-04T06:44:46;12.93;;;4.27;;
11247;SDS011;5681;53.316;13.950;2024-02-04T06:47:13;18.33;;;5.03;;
11247;SDS011;5681;53.316;13.950;2024-02-04T06:49:43;16.67;;;4.90;;
11247;SDS011;5681;53.316;13.950;2024-02-04T06:52:11;12.57;;;4.23;;
11247;SDS011;5681;53.316;13.950;2024-02-04T06:54:37;17.37;;;4.20;;
11247;SDS011;5681;53.316;13.950;2024-02-04T06:57:04;21.37;;;6.73;;
11247;SDS011;5681;53.316;13.950;2024-02-04T06:59:32;21.63;;;7.37;;
11247;SDS011;5681;53.316;13.950;2024-02-04T07:01:58;19.93;;;6.53;;
11247;SDS011;5681;53.316;13.950;2024-02-04T07:04:24;20.90;;;7.30;;
11247;SDS011;5681;53.316;13.950;2024-02-04T07:06:51;18.00;;;3.37;;
11247;SDS011;5681;53.316;13.950;2024-02-04T07:09:18;12.57;;;3.10;;
11247;SDS011;5681;53.316;13.950;2024-02-04T07:11:44;9.20;;;2.67;;
11247;SDS011;5681;53.316;13.950;2024-02-04T07:14:11;11.37;;;3.00;;
11247;SDS011;5681;53.316;13.950;2024-02-04T07:16:39;18.57;;;3.07;;
11247;SDS011;5681;53.316;13.950;2024-02-04T07:19:05;14.87;;;3.87;;
11247;SDS011;5681;53.316;13.950;2024-02-04T07:21:31;14.00;;;3.23;;
11247;SDS011;5681;53.316;13.950;2024-02-04T07:23:58;16.20;;;3.57;;
11247;SDS011;5681;53.316;13.950;2024-02-04T07:26:24;14.93;;;3.83;;
11247;SDS011;5681;53.316;13.950;2024-02-04T07:28:50;13.07;;;3.80;;
11247;SDS011;5681;53.316;13.950;2024-02-04T07:31:17;12.33;;;3.20;;
11247;SDS011;5681;53.316;13.950;2024-02-04T07:33:45;11.50;;;2.57;;
11247;SDS011;5681;53.316;13.950;2024-02-04T07:36:11;8.87;;;2.73;;
11247;SDS011;5681;53.316;13.950;2024-02-04T07:38:38;11.50;;;2.83;;
11247;SDS011;5681;53.316;13.950;2024-02-04T07:41:04;16.27;;;3.00;;
11247;SDS011;5681;53.316;13.950;2024-02-04T07:43:31;11.53;;;2.40;;
11247;SDS011;5681;53.316;13.950;2024-02-04T07:45:57;18.13;;;2.70;;
11247;SDS011;5681;53.316;13.950;2024-02-04T07:48:23;9.43;;;2.67;;
11247;SDS011;5681;53.316;13.950;2024-02-04T07:50:51;10.80;;;2.70;;
11247;SDS011;5681;53.316;13.950;2024-02-04T07:53:17;9.53;;;3.07;;
11247;SDS011;5681;53.316;13.950;2024-02-04T07:55:45;10.53;;;2.60;;
11247;SDS011;5681;53.316;13.950;2024-02-04T07:58:11;7.80;;;2.40;;
11247;SDS011;5681;53.316;13.950;2024-02-04T08:00:38;9.13;;;2.60;;
11247;SDS011;5681;53.316;13.950;2024-02-04T08:03:04;8.67;;;2.50;;
11247;SDS011;5681;53.316;13.950;2024-02-04T08:05:30;11.20;;;3.13;;
11247;SDS011;5681;53.316;13.950;2024-02-04T08:08:01;7.13;;;2.70;;
11247;SDS011;5681;53.316;13.950;2024-02-04T08:10:28;9.30;;;2.67;;
11247;SDS011;5681;53.316;13.950;2024-02-04T08:12:54;13.67;;;2.90;;
11247;SDS011;5681;53.316;13.950;2024-02-04T08:15:20;11.73;;;2.80;;
11247;SDS011;5681;53.316;13.950;2024-02-04T08:17:47;9.20;;;2.90;;
11247;SDS011;5681;53.316;13.950;2024-02-04T08:20:13;8.17;;;2.80;;
11247;SDS011;5681;53.316;13.950;2024-02-04T08:22:40;13.47;;;2.97;;
11247;SDS011;5681;53.316;13.950;2024-02-04T08:25:07;7.47;;;2.40;;
11247;SDS011;5681;53.316;13.950;2024-02-04T08:27:36;12.27;;;2.97;;
11247;SDS011;5681;53.316;13.950;2024-02-04T08:30:05;9.33;;;2.30;;
11247;SDS011;5681;53.316;13.950;2024-02-04T08:32:32;9.63;;;2.40;;
11247;SDS011;5681;53.316;13.950;2024-02-04T08:34:59;11.83;;;2.87;;
11247;SDS011;5681;53.316;13.950;2024-02-04T08:37:25;14.30;;;2.90;;
11247;SDS011;5681;53.316;13.950;2024-02-04T08:39:52;9.40;;;2.80;;
11247;SDS011;5681;53.316;13.950;2024-02-04T08:42:19;12.50;;;3.00;;
11247;SDS011;5681;53.316;13.950;2024-02-04T08:44:46;16.20;;;2.97;;
11247;SDS011;5681;53.316;13.950;2024-02-04T08:47:13;13.50;;;2.83;;
11247;SDS011;5681;53.316;13.950;2024-02-04T08:49:42;10.10;;;2.63;;
11247;SDS011;5681;53.316;13.950;2024-02-04T08:52:08;8.43;;;2.30;;
11247;SDS011;5681;53.316;13.950;2024-02-04T08:54:34;10.57;;;2.73;;
11247;SDS011;5681;53.316;13.950;2024-02-04T08:57:01;15.20;;;2.80;;
11247;SDS011;5681;53.316;13.950;2024-02-04T08:59:28;10.83;;;2.33;;
11247;SDS011;5681;53.316;13.950;2024-02-04T09:01:55;11.87;;;2.50;;
11247;SDS011;5681;53.316;13.950;2024-02-04T09:04:21;9.73;;;2.47;;
11247;SDS011;5681;53.316;13.950;2024-02-04T09:06:48;9.33;;;2.43;;
11247;SDS011;5681;53.316;13.950;2024-02-04T09:09:14;13.70;;;2.80;;
11247;SDS011;5681;53.316;13.950;2024-02-04T09:11:41;9.40;;;2.67;;
11247;SDS011;5681;53.316;13.950;2024-02-04T09:14:07;7.83;;;2.27;;
11247;SDS011;5681;53.316;13.950;2024-02-04T09:16:36;10.37;;;2.40;;
11247;SDS011;5681;53.316;13.950;2024-02-04T09:19:03;12.03;;;2.60;;
11247;SDS011;5681;53.316;13.950;2024-02-04T09:21:30;8.87;;;2.33;;
11247;SDS011;5681;53.316;13.950;2024-02-04T09:23:56;11.50;;;3.27;;
11247;SDS011;5681;53.316;13.950;2024-02-04T09:26:23;19.40;;;5.10;;
11247;SDS011;5681;53.316;13.950;2024-02-04T09:28:49;15.93;;;7.67;;
11247;SDS011;5681;53.316;13.950;2024-02-04T09:31:16;8.50;;;3.27;;
11247;SDS011;5681;53.316;13.950;2024-02-04T09:33:43;11.47;;;3.50;;
11247;SDS011;5681;53.316;13.950;2024-02-04T09:36:10;11.67;;;3.00;;
11247;SDS011;5681;53.316;13.950;2024-02-04T09:38:36;10.87;;;3.50;;
11247;SDS011;5681;53.316;13.950;2024-02-04T09:41:03;10.10;;;2.83;;
11247;SDS011;5681;53.316;13.950;2024-02-04T09:43:30;11.87;;;3.43;;
11247;SDS011;5681;53.316;13.950;2024-02-04T09:45:57;12.80;;;4.50;;
11247;SDS011;5681;53.316;13.950;2024-02-04T09:48:24;11.33;;;3.33;;
11247;SDS011;5681;53.316;13.950;2024-02-04T09:50:53;8.30;;;3.23;;
11247;SDS011;5681;53.316;13.950;2024-02-04T09:53:21;12.60;;;3.77;;
11247;SDS011;5681;53.316;13.950;2024-02-04T09:55:48;11.67;;;3.57;;
11247;SDS011;5681;53.316;13.950;2024-02-04T09:58:15;12.77;;;4.10;;
11247;SDS011;5681;53.316;13.950;2024-02-04T10:00:42;10.40;;;4.87;;
11247;SDS011;5681;53.316;13.950;2024-02-04T10:03:10;9.23;;;3.50;;
11247;SDS011;5681;53.316;13.950;2024-02-04T10:05:36;14.03;;;3.70;;
11247;SDS011;5681;53.316;13.950;2024-02-04T10:08:04;11.50;;;3.60;;
11247;SDS011;5681;53.316;13.950;2024-02-04T10:10:31;9.80;;;3.57;;
11247;SDS011;5681;53.316;13.950;2024-02-04T10:12:58;10.80;;;5.90;;
11247;SDS011;5681;53.316;13.950;2024-02-04T10:15:30;11.17;;;4.07;;
11247;SDS011;5681;53.316;13.950;2024-02-04T10:17:59;11.23;;;3.20;;
11247;SDS011;5681;53.316;13.950;2024-02-04T10:20:26;12.37;;;3.30;;
11247;SDS011;5681;53.316;13.950;2024-02-04T10:22:53;9.40;;;3.33;;
11247;SDS011;5681;53.316;13.950;2024-02-04T10:25:21;12.50;;;3.23;;
11247;SDS011;5681;53.316;13.950;2024-02-04T10:27:48;12.40;;;3.57;;
11247;SDS011;5681;53.316;13.950;2024-02-04T10:30:15;10.03;;;3.10;;
11247;SDS011;5681;53.316;13.950;2024-02-04T10:32:42;9.10;;;3.17;;
11247;SDS011;5681;53.316;13.950;2024-02-04T10:35:09;9.37;;;3.07;;
11247;SDS011;5681;53.316;13.950;2024-02-04T10:37:36;11.90;;;3.20;;
11247;SDS011;5681;53.316;13.950;2024-02-04T10:40:02;11.43;;;4.00;;
11247;SDS011;5681;53.316;13.950;2024-02-04T10:42:31;10.10;;;3.03;;
11247;SDS011;5681;53.316;13.950;2024-02-04T10:44:58;11.20;;;3.40;;
11247;SDS011;5681;53.316;13.950;2024-02-04T10:47:25;9.80;;;2.60;;
11247;SDS011;5681;53.316;13.950;2024-02-04T10:49:57;8.97;;;2.77;;
11247;SDS011;5681;53.316;13.950;2024-02-04T10:52:24;11.80;;;2.80;;
11247;SDS011;5681;53.316;13.950;2024-02-04T10:54:53;8.80;;;2.80;;
11247;SDS011;5681;53.316;13.950;2024-02-04T10:57:20;9.40;;;3.10;;
11247;SDS011;5681;53.316;13.950;2024-02-04T10:59:49;12.03;;;3.10;;
11247;SDS011;5681;53.316;13.950;2024-02-04T11:02:15;9.93;;;2.40;;
11247;SDS011;5681;53.316;13.950;2024-02-04T11:04:42;9.93;;;2.70;;
11247;SDS011;5681;53.316;13.950;2024-02-04T11:07:09;10.55;;;2.70;;
11247;SDS011;5681;53.316;13.950;2024-02-04T11:09:36;9.57;;;2.83;;
11247;SDS011;5681;53.316;13.950;2024-02-04T11:12:03;9.43;;;2.63;;
11247;SDS011;5681;53.316;13.950;2024-02-04T11:14:32;9.07;;;2.50;;
11247;SDS011;5681;53.316;13.950;2024-02-04T11:17:08;8.43;;;2.20;;
11247;SDS011;5681;53.316;13.950;2024-02-04T11:19:45;11.13;;;3.03;;
11247;SDS011;5681;53.316;13.950;2024-02-04T11:22:20;13.67;;;2.63;;
11247;SDS011;5681;53.316;13.950;2024-02-04T11:24:54;11.13;;;2.73;;
11247;SDS011;5681;53.316;13.950;2024-02-04T11:27:35;10.30;;;2.40;;
11247;SDS011;5681;53.316;13.950;2024-02-04T11:30:02;8.83;;;2.83;;
11247;SDS011;5681;53.316;13.950;2024-02-04T11:32:31;9.07;;;2.40;;
11247;SDS011;5681;53.316;13.950;2024-02-04T11:34:57;11.43;;;2.40;;
11247;SDS011;5681;53.316;13.950;2024-02-04T11:37:26;9.67;;;2.33;;
11247;SDS011;5681;53.316;13.950;2024-02-04T11:39:53;9.70;;;2.27;;
11247;SDS011;5681;53.316;13.950;2024-02-04T11:42:22;9.00;;;2.25;;
11247;SDS011;5681;53.316;13.950;2024-02-04T11:44:49;7.97;;;2.43;;
11247;SDS011;5681;53.316;13.950;2024-02-04T11:47:23;7.53;;;2.30;;
11247;SDS011;5681;53.316;13.950;2024-02-04T11:49:55;9.50;;;2.07;;
11247;SDS011;5681;53.316;13.950;2024-02-04T11:52:21;10.40;;;2.87;;
11247;SDS011;5681;53.316;13.950;2024-02-04T11:54:48;15.43;;;4.57;;
11247;SDS011;5681;53.316;13.950;2024-02-04T11:57:14;7.70;;;2.80;;
11247;SDS011;5681;53.316;13.950;2024-02-04T11:59:42;9.98;;;2.72;;
11247;SDS011;5681;53.316;13.950;2024-02-04T12:02:09;8.80;;;2.70;;
11247;SDS011;5681;53.316;13.950;2024-02-04T12:04:37;10.27;;;2.43;;
11247;SDS011;5681;53.316;13.950;2024-02-04T12:07:05;10.93;;;2.30;;
11247;SDS011;5681;53.316;13.950;2024-02-04T12:09:33;12.57;;;2.70;;
11247;SDS011;5681;53.316;13.950;2024-02-04T12:12:01;7.65;;;2.35;;
11247;SDS011;5681;53.316;13.950;2024-02-04T12:14:28;10.83;;;2.40;;
11247;SDS011;5681;53.316;13.950;2024-02-04T12:16:54;8.57;;;2.10;;
11247;SDS011;5681;53.316;13.950;2024-02-04T12:19:21;6.07;;;2.20;;
11247;SDS011;5681;53.316;13.950;2024-02-04T12:21:47;12.07;;;2.60;;
11247;SDS011;5681;53.316;13.950;2024-02-04T12:24:15;10.33;;;2.27;;
11247;SDS011;5681;53.316;13.950;2024-02-04T12:26:42;11.77;;;2.20;;
11247;SDS011;5681;53.316;13.950;2024-02-04T12:29:11;8.37;;;2.20;;
11247;SDS011;5681;53.316;13.950;2024-02-04T12:31:38;11.57;;;2.30;;
11247;SDS011;5681;53.316;13.950;2024-02-04T12:34:05;10.50;;;2.25;;
11247;SDS011;5681;53.316;13.950;2024-02-04T12:36:32;7.53;;;2.10;;
11247;SDS011;5681;53.316;13.950;2024-02-04T12:38:59;9.18;;;2.28;;
11247;SDS011;5681;53.316;13.950;2024-02-04T12:41:27;8.07;;;2.10;;
11247;SDS011;5681;53.316;13.950;2024-02-04T12:43:55;11.70;;;2.33;;
11247;SDS011;5681;53.316;13.950;2024-02-04T12:46:25;11.57;;;2.23;;
11247;SDS011;5681;53.316;13.950;2024-02-04T12:48:52;9.90;;;2.55;;
11247;SDS011;5681;53.316;13.950;2024-02-04T12:51:23;8.77;;;2.22;;
11247;SDS011;5681;53.316;13.950;2024-02-04T12:53:49;10.70;;;2.60;;
11247;SDS011;5681;53.316;13.950;2024-02-04T12:56:16;8.37;;;2.50;;
11247;SDS011;5681;53.316;13.950;2024-02-04T12:58:44;11.27;;;2.35;;
11247;SDS011;5681;53.316;13.950;2024-02-04T13:01:10;8.30;;;2.60;;
11247;SDS011;5681;53.316;13.950;2024-02-04T13:03:36;6.78;;;2.22;;
11247;SDS011;5681;53.316;13.950;2024-02-04T13:06:03;14.35;;;2.60;;
11247;SDS011;5681;53.316;13.950;2024-02-04T13:08:30;11.02;;;2.45;;
11247;SDS011;5681;53.316;13.950;2024-02-04T13:10:57;8.60;;;2.53;;
11247;SDS011;5681;53.316;13.950;2024-02-04T13:13:23;7.75;;;2.40;;
11247;SDS011;5681;53.316;13.950;2024-02-04T13:15:54;6.90;;;2.28;;
11247;SDS011;5681;53.316;13.950;2024-02-04T13:18:21;11.43;;;2.63;;
11247;SDS011;5681;53.316;13.950;2024-02-04T13:20:47;12.80;;;3.50;;
11247;SDS011;5681;53.316;13.950;2024-02-04T13:23:14;9.53;;;2.90;;
11247;SDS011;5681;53.316;13.950;2024-02-04T13:25:40;6.53;;;1.93;;
11247;SDS011;5681;53.316;13.950;2024-02-04T13:28:06;10.80;;;2.60;;
11247;SDS011;5681;53.316;13.950;2024-02-04T13:30:33;13.07;;;2.60;;
11247;SDS011;5681;53.316;13.950;2024-02-04T13:33:00;10.50;;;3.10;;
11247;SDS011;5681;53.316;13.950;2024-02-04T13:35:28;11.20;;;2.42;;
11247;SDS011;5681;53.316;13.950;2024-02-04T13:37:55;8.33;;;2.30;;
11247;SDS011;5681;53.316;13.950;2024-02-04T13:40:21;11.15;;;2.28;;
11247;SDS011;5681;53.316;13.950;2024-02-04T13:42:49;9.20;;;2.17;;
11247;SDS011;5681;53.316;13.950;2024-02-04T13:45:16;10.00;;;2.50;;
11247;SDS011;5681;53.316;13.950;2024-02-04T13:47:43;10.80;;;2.63;;
11247;SDS011;5681;53.316;13.950;2024-02-04T13:50:10;9.00;;;2.47;;
11247;SDS011;5681;53.316;13.950;2024-02-04T13:52:37;12.65;;;2.50;;
11247;SDS011;5681;53.316;13.950;2024-02-04T13:55:05;12.37;;;2.80;;
11247;SDS011;5681;53.316;13.950;2024-02-04T13:57:32;12.70;;;3.10;;
11247;SDS011;5681;53.316;13.950;2024-02-04T13:59:58;9.87;;;2.50;;
11247;SDS011;5681;53.316;13.950;2024-02-04T14:02:25;8.60;;;2.77;;
11247;SDS011;5681;53.316;13.950;2024-02-04T14:04:54;8.60;;;2.13;;
11247;SDS011;5681;53.316;13.950;2024-02-04T14:07:22;9.73;;;2.80;;
11247;SDS011;5681;53.316;13.950;2024-02-04T14:09:48;13.77;;;2.80;;
11247;SDS011;5681;53.316;13.950;2024-02-04T14:12:15;12.57;;;2.90;;
11247;SDS011;5681;53.316;13.950;2024-02-04T14:14:41;9.17;;;2.47;;
11247;SDS011;5681;53.316;13.950;2024-02-04T14:17:08;14.23;;;3.40;;
11247;SDS011;5681;53.316;13.950;2024-02-04T14:19:34;12.43;;;2.57;;
11247;SDS011;5681;53.316;13.950;2024-02-04T14:22:01;9.00;;;2.30;;
11247;SDS011;5681;53.316;13.950;2024-02-04T14:24:29;14.27;;;2.63;;
11247;SDS011;5681;53.316;13.950;2024-02-04T14:26:56;9.87;;;2.67;;
11247;SDS011;5681;53.316;13.950;2024-02-04T14:29:23;15.07;;;2.93;;
11247;SDS011;5681;53.316;13.950;2024-02-04T14:31:49;9.67;;;2.93;;
11247;SDS011;5681;53.316;13.950;2024-02-04T14:34:15;20.77;;;8.80;;
11247;SDS011;5681;53.316;13.950;2024-02-04T14:36:42;38.58;;;14.77;;